Time;durP1;ratioP1;P1;durP2;ratioP2;P2;SDS_P1;SDS_P2;PMS_P1;PMS_P2;Temp;Humidity;BMP_temperature;BMP_pressure;BME280_temperature;BME280_humidity;BME280_pressure;Samples;Min_cycle;Max_cycle;Signal;HPM_P1;HPM_P2
2024/04/04 00:00:45;;;;;;;5.47;1.33;;;11.00;97.30;;;;;;5063292;28;20089;-87
2024/04/04 00:03:11;;;;;;;4.20;0.50;;;10.90;97.20;;;;;;5052994;28;20049;-87
2024/04/04 00:05:37;;;;;;;4.70;0.40;;;10.90;97.10;;;;;;5050332;28;20040;-87
2024/04/04 00:08:04;;;;;;;3.42;0.63;;;10.80;97.20;;;;;;5047812;28;20089;-87
2024/04/04 00:10:30;;;;;;;2.08;0.30;;;10.70;97.30;;;;;;5070432;28;20048;-87
2024/04/04 00:12:58;;;;;;;3.28;0.40;;;10.60;97.40;;;;;;5046496;28;20565;-87
2024/04/04 00:15:24;;;;;;;4.13;0.70;;;10.60;97.60;;;;;;5047014;28;20074;-88
2024/04/04 00:17:50;;;;;;;3.53;0.40;;;10.40;97.70;;;;;;5046551;28;20131;-87
2024/04/04 00:20:16;;;;;;;3.88;0.40;;;10.40;97.80;;;;;;5048754;28;20051;-87
2024/04/04 00:22:43;;;;;;;3.00;0.20;;;10.30;98.00;;;;;;5028853;28;20044;-87
2024/04/04 00:25:09;;;;;;;3.05;0.45;;;10.30;98.10;;;;;;5057480;28;20047;-87
2024/04/04 00:27:36;;;;;;;1.98;0.30;;;10.20;98.60;;;;;;5039705;28;20044;-87
2024/04/04 00:30:04;;;;;;;3.33;0.40;;;10.20;98.40;;;;;;5040790;28;20047;-87
2024/04/04 00:32:30;;;;;;;2.00;0.32;;;10.10;98.50;;;;;;5063323;28;20056;-87
2024/04/04 00:34:56;;;;;;;2.65;0.40;;;10.00;98.60;;;;;;5062357;28;20098;-87
2024/04/04 00:37:22;;;;;;;3.28;0.30;;;10.00;98.70;;;;;;5050103;28;20040;-87
2024/04/04 00:39:48;;;;;;;2.30;0.40;;;9.90;98.80;;;;;;5043010;28;20404;-87
2024/04/04 00:42:14;;;;;;;1.60;0.20;;;9.90;98.90;;;;;;5043725;28;20055;-87
2024/04/04 00:44:40;;;;;;;1.73;0.28;;;9.80;99.00;;;;;;5049815;28;20122;-87
2024/04/04 00:47:06;;;;;;;1.55;0.40;;;9.80;99.40;;;;;;5042525;28;20515;-87
2024/04/04 00:49:32;;;;;;;2.40;0.30;;;9.80;99.20;;;;;;5047164;28;20032;-87
2024/04/04 00:51:59;;;;;;;2.15;0.30;;;9.70;99.30;;;;;;5059230;28;20518;-87
2024/04/04 00:54:25;;;;;;;0.95;0.28;;;9.70;99.40;;;;;;5031534;28;20062;-86
2024/04/04 00:56:52;;;;;;;1.35;0.20;;;9.60;99.40;;;;;;5034599;28;20085;-87
2024/04/04 00:59:18;;;;;;;2.33;0.10;;;9.60;99.50;;;;;;5057619;28;20055;-87
2024/04/04 01:01:44;;;;;;;1.60;0.30;;;9.60;99.60;;;;;;5035726;28;20056;-87
2024/04/04 01:04:11;;;;;;;1.83;0.20;;;9.50;99.70;;;;;;5021640;28;20037;-87
2024/04/04 01:06:39;;;;;;;1.27;0.20;;;9.50;99.80;;;;;;5036486;28;20052;-87
2024/04/04 01:09:05;;;;;;;0.88;0.10;;;9.40;99.90;;;;;;5036284;28;20045;-87
2024/04/04 01:11:31;;;;;;;1.60;0.20;;;9.40;99.90;;;;;;5055484;28;20399;-87
2024/04/04 01:13:57;;;;;;;0.90;0.10;;;9.40;99.90;;;;;;5052196;28;20053;-86
2024/04/04 01:16:23;;;;;;;1.35;0.20;;;9.50;99.90;;;;;;5042526;28;20543;-85
2024/04/04 01:18:49;;;;;;;1.20;0.20;;;9.60;99.90;;;;;;5054106;28;20048;-87
2024/04/04 01:21:17;;;;;;;0.50;0.20;;;9.60;99.90;;;;;;5057879;28;20416;-87
2024/04/04 01:23:43;;;;;;;2.03;0.30;;;9.60;99.90;;;;;;5046242;28;20106;-88
2024/04/04 01:26:09;;;;;;;5.25;0.60;;;9.70;99.90;;;;;;5059049;28;20062;-88
2024/04/04 01:28:35;;;;;;;2.05;0.45;;;9.80;99.80;;;;;;5061524;28;20044;-88
2024/04/04 01:31:01;;;;;;;0.77;0.10;;;9.80;99.70;;;;;;5055770;28;20210;-88
2024/04/04 01:33:28;;;;;;;1.38;0.40;;;10.00;99.70;;;;;;5025050;28;20052;-88
2024/04/04 01:35:54;;;;;;;0.68;0.10;;;10.00;99.60;;;;;;5063335;28;20081;-88
2024/04/04 01:38:20;;;;;;;4.03;0.40;;;10.00;99.60;;;;;;5042678;28;20093;-88
2024/04/04 01:40:45;;;;;;;3.20;0.50;;;10.00;99.70;;;;;;5035474;28;20511;-87
2024/04/04 01:43:11;;;;;;;2.00;0.32;;;10.00;99.90;;;;;;5042129;28;20052;-87
2024/04/04 01:45:38;;;;;;;1.17;0.20;;;9.90;99.90;;;;;;5057248;28;20040;-87
2024/04/04 01:48:04;;;;;;;2.47;0.57;;;9.90;99.90;;;;;;5074664;28;20040;-88
2024/04/04 01:50:30;;;;;;;2.63;0.70;;;9.80;99.90;;;;;;5037377;28;20033;-88
2024/04/04 01:52:56;;;;;;;2.85;0.40;;;9.80;99.90;;;;;;5038742;28;20061;-87
2024/04/04 01:55:22;;;;;;;2.22;0.45;;;9.80;99.90;;;;;;5038726;28;20178;-88
2024/04/04 01:57:49;;;;;;;1.63;0.17;;;9.80;99.90;;;;;;5026704;28;20110;-88
2024/04/04 02:00:15;;;;;;;0.80;0.20;;;9.80;99.90;;;;;;5051483;28;20496;-88
2024/04/04 02:02:41;;;;;;;2.58;0.50;;;9.80;99.90;;;;;;5054909;28;20095;-88
2024/04/04 02:05:07;;;;;;;2.05;0.30;;;9.80;99.90;;;;;;5042329;28;20040;-88
2024/04/04 02:07:33;;;;;;;1.27;0.43;;;9.80;99.90;;;;;;5043193;28;20377;-88
2024/04/04 02:10:00;;;;;;;0.77;0.15;;;9.80;99.90;;;;;;5048433;28;20044;-88
2024/04/04 02:12:26;;;;;;;1.00;0.10;;;9.80;99.90;;;;;;5056060;28;20414;-88
2024/04/04 02:14:52;;;;;;;0.80;0.20;;;9.80;99.90;;;;;;5042387;28;20404;-88
2024/04/04 02:17:18;;;;;;;0.38;0.10;;;9.90;99.90;;;;;;5054959;28;20044;-88
2024/04/04 02:19:44;;;;;;;1.58;0.10;;;9.90;99.90;;;;;;5039809;28;20103;-88
2024/04/04 02:22:11;;;;;;;1.17;0.68;;;9.90;99.90;;;;;;5041055;28;20401;-88
2024/04/04 02:24:37;;;;;;;0.73;0.10;;;9.90;99.90;;;;;;5091421;28;20040;-88
2024/04/04 02:27:03;;;;;;;1.17;0.15;;;10.00;99.90;;;;;;5055750;28;20032;-88
2024/04/04 02:29:29;;;;;;;0.95;0.10;;;10.00;99.90;;;;;;5041858;28;20435;-88
2024/04/04 02:31:55;;;;;;;0.22;0.03;;;10.00;99.90;;;;;;5055727;28;20073;-88
2024/04/04 02:34:21;;;;;;;0.82;0.10;;;10.00;99.90;;;;;;5038999;28;20045;-88
2024/04/04 02:36:50;;;;;;;1.45;0.30;;;10.00;99.90;;;;;;5051213;28;20080;-88
2024/04/04 02:39:16;;;;;;;0.38;0.10;;;10.00;99.90;;;;;;5052391;28;20054;-88
2024/04/04 02:41:43;;;;;;;1.33;0.10;;;10.00;99.90;;;;;;5032086;28;20049;-88
2024/04/04 02:44:10;;;;;;;0.65;0.00;;;10.00;99.90;;;;;;5049031;28;20140;-88
2024/04/04 02:46:37;;;;;;;0.52;0.10;;;10.00;99.90;;;;;;5058973;28;20047;-88
2024/04/04 02:49:03;;;;;;;0.32;0.10;;;10.00;99.90;;;;;;5055819;28;20037;-88
2024/04/04 02:51:32;;;;;;;0.70;0.10;;;10.00;99.90;;;;;;5038670;28;20037;-88
2024/04/04 02:53:59;;;;;;;0.93;0.30;;;10.10;99.90;;;;;;5052332;28;20075;-88
2024/04/04 02:56:25;;;;;;;2.80;0.20;;;10.10;99.90;;;;;;5045124;28;20052;-88
2024/04/04 02:58:51;;;;;;;0.28;0.00;;;10.10;99.90;;;;;;5036185;28;20053;-88
2024/04/04 03:01:17;;;;;;;0.10;0.00;;;10.10;99.90;;;;;;5045044;28;20072;-88
2024/04/04 03:03:44;;;;;;;1.17;0.10;;;10.10;99.90;;;;;;5018408;28;20403;-88
2024/04/04 03:06:11;;;;;;;0.40;0.10;;;10.10;99.90;;;;;;5055705;28;20044;-86
2024/04/04 03:08:37;;;;;;;1.63;0.17;;;10.10;99.90;;;;;;5039624;28;20051;-89
2024/04/04 03:11:07;;;;;;;0.38;0.00;;;10.10;99.90;;;;;;5041629;28;20052;-87
2024/04/04 03:13:32;;;;;;;1.15;0.20;;;10.10;99.90;;;;;;5041564;28;20041;-87
2024/04/04 03:15:59;;;;;;;0.55;0.10;;;10.10;99.90;;;;;;5020715;28;20040;-88
2024/04/04 03:18:25;;;;;;;0.93;0.30;;;10.10;99.90;;;;;;5069821;28;20040;-87
2024/04/04 03:20:51;;;;;;;3.10;0.55;;;10.10;99.90;;;;;;5040884;28;20037;-87
2024/04/04 03:23:17;;;;;;;2.00;0.30;;;10.00;99.90;;;;;;5041043;28;20048;-88
2024/04/04 03:25:43;;;;;;;1.50;0.20;;;10.10;99.90;;;;;;5047724;28;20443;-88
2024/04/04 03:28:10;;;;;;;0.63;0.10;;;10.00;99.90;;;;;;5040842;28;20052;-88
2024/04/04 03:30:36;;;;;;;0.50;0.10;;;10.00;99.90;;;;;;5046077;28;20040;-89
2024/04/04 03:33:03;;;;;;;0.30;0.10;;;10.00;99.90;;;;;;5061876;28;20396;-88
2024/04/04 03:35:29;;;;;;;0.80;0.17;;;10.10;99.90;;;;;;5054972;28;20040;-88
2024/04/04 03:37:55;;;;;;;0.50;0.10;;;10.00;99.90;;;;;;5014674;28;20734;-88
2024/04/04 03:40:21;;;;;;;1.08;0.10;;;10.10;99.90;;;;;;5057184;28;20128;-88
2024/04/04 03:42:47;;;;;;;0.20;0.10;;;10.10;99.90;;;;;;5040684;28;20044;-88
2024/04/04 03:45:16;;;;;;;0.10;0.00;;;10.10;99.90;;;;;;5044776;28;20044;-89
2024/04/04 03:47:41;;;;;;;0.40;0.10;;;10.10;99.90;;;;;;5047472;28;20044;-89
2024/04/04 03:50:08;;;;;;;0.57;0.15;;;10.10;99.90;;;;;;5050394;28;20104;-89
2024/04/04 03:52:34;;;;;;;2.13;0.20;;;10.10;99.90;;;;;;5045834;28;20047;-89
2024/04/04 03:55:00;;;;;;;0.45;0.10;;;10.10;99.90;;;;;;5049859;28;20048;-89
2024/04/04 03:57:26;;;;;;;0.68;0.10;;;10.10;99.90;;;;;;5057108;28;20040;-89
2024/04/04 03:59:53;;;;;;;0.13;0.10;;;10.10;99.90;;;;;;5048553;28;20055;-88
2024/04/04 04:02:19;;;;;;;0.75;0.20;;;10.10;99.90;;;;;;5069644;28;20458;-87
2024/04/04 04:04:46;;;;;;;0.20;0.10;;;10.10;99.90;;;;;;5053561;28;20045;-87
2024/04/04 04:07:12;;;;;;;0.63;0.10;;;10.10;99.90;;;;;;5036711;28;20054;-88
2024/04/04 04:09:38;;;;;;;0.20;0.10;;;10.10;99.90;;;;;;5052928;28;20036;-88
2024/04/04 04:12:05;;;;;;;0.57;0.20;;;10.10;99.90;;;;;;5044326;28;20040;-88
2024/04/04 04:14:31;;;;;;;1.55;0.20;;;10.10;99.90;;;;;;5043269;28;20041;-88
2024/04/04 04:16:57;;;;;;;1.27;0.10;;;10.10;99.90;;;;;;5040270;28;20094;-87
2024/04/04 04:19:23;;;;;;;0.88;0.20;;;10.10;99.90;;;;;;5042656;28;20421;-87
2024/04/04 04:21:52;;;;;;;0.60;0.20;;;10.10;99.90;;;;;;5043924;28;20044;-86
2024/04/04 04:24:18;;;;;;;1.17;0.17;;;10.10;99.90;;;;;;5064893;28;20484;-87
2024/04/04 04:26:44;;;;;;;2.67;0.35;;;10.10;99.90;;;;;;5038642;28;20412;-86
2024/04/04 04:29:11;;;;;;;0.80;0.10;;;10.10;99.90;;;;;;5043782;28;20048;-87
2024/04/04 04:31:37;;;;;;;0.95;0.20;;;10.10;99.90;;;;;;5042397;28;20047;-86
2024/04/04 04:34:03;;;;;;;0.45;0.10;;;10.10;99.90;;;;;;5041483;28;20492;-86
2024/04/04 04:36:36;;;;;;;0.52;0.10;;;10.10;99.90;;;;;;5072927;28;20050;-87
2024/04/04 04:39:02;;;;;;;;;;;10.10;99.90;;;;;;5056835;28;20054;-86
2024/04/04 04:41:28;;;;;;;0.40;0.20;;;10.10;99.90;;;;;;5039219;28;19920;-86
2024/04/04 04:43:54;;;;;;;1.90;0.45;;;10.10;99.90;;;;;;5055696;28;20040;-86
2024/04/04 04:46:20;;;;;;;0.35;0.20;;;10.10;99.90;;;;;;5035557;28;20045;-86
2024/04/04 04:48:47;;;;;;;1.50;0.22;;;10.10;99.90;;;;;;5055375;28;20041;-86
2024/04/04 04:51:13;;;;;;;1.30;0.30;;;10.10;99.90;;;;;;5039742;28;20059;-86
2024/04/04 04:53:40;;;;;;;1.83;0.50;;;10.10;99.90;;;;;;5046771;28;20044;-86
2024/04/04 04:56:07;;;;;;;0.65;0.35;;;10.10;99.90;;;;;;5057268;28;20122;-86
2024/04/04 04:58:33;;;;;;;1.98;0.75;;;10.20;99.90;;;;;;5038705;28;20044;-86
2024/04/04 05:00:59;;;;;;;2.20;0.60;;;10.20;99.90;;;;;;5038766;28;20419;-86
2024/04/04 05:03:28;;;;;;;1.98;0.70;;;10.30;99.90;;;;;;5038621;28;20045;-85
2024/04/04 05:05:54;;;;;;;3.03;1.00;;;10.40;99.90;;;;;;5040102;28;20045;-84
2024/04/04 05:08:20;;;;;;;3.17;1.00;;;10.40;99.90;;;;;;5050286;28;20044;-85
2024/04/04 05:10:47;;;;;;;3.40;1.00;;;10.40;99.90;;;;;;5036663;28;20051;-85
2024/04/04 05:13:13;;;;;;;2.40;0.80;;;10.50;99.90;;;;;;5057259;28;20044;-84
2024/04/04 05:15:53;;;;;;;2.05;1.45;;;10.50;99.90;;;;;;5062123;28;20048;-84
2024/04/04 05:18:20;;;;;;;3.72;1.30;;;10.50;99.90;;;;;;5034982;28;20488;-83
2024/04/04 05:20:46;;;;;;;2.47;1.00;;;10.60;99.90;;;;;;5038452;28;20052;-85
2024/04/04 05:23:12;;;;;;;4.55;1.13;;;10.60;99.90;;;;;;5052252;28;20051;-83
2024/04/04 05:25:39;;;;;;;2.58;0.80;;;10.60;99.90;;;;;;5045843;28;20582;-82
2024/04/04 05:28:06;;;;;;;2.65;0.70;;;10.60;99.90;;;;;;5074361;28;20052;-83
2024/04/04 05:30:32;;;;;;;1.55;0.80;;;10.70;99.90;;;;;;5034712;28;20454;-83
2024/04/04 05:33:00;;;;;;;2.70;0.90;;;10.70;99.90;;;;;;5032008;28;20053;-82
2024/04/04 05:35:26;;;;;;;2.10;0.85;;;10.70;99.90;;;;;;5059952;28;20385;-82
2024/04/04 05:37:52;;;;;;;2.13;0.90;;;10.70;99.90;;;;;;5038631;28;20059;-83
2024/04/04 05:40:18;;;;;;;2.05;0.90;;;10.70;99.90;;;;;;5038089;28;20147;-82
2024/04/04 05:42:47;;;;;;;1.95;0.70;;;10.80;99.90;;;;;;5042806;28;20044;-82
2024/04/04 05:45:13;;;;;;;2.22;0.70;;;10.80;99.90;;;;;;5038884;28;20041;-83
2024/04/04 05:47:39;;;;;;;3.30;0.60;;;10.80;99.90;;;;;;5065357;28;20164;-83
2024/04/04 05:50:05;;;;;;;3.60;1.17;;;10.90;99.90;;;;;;5033269;28;20540;-86
2024/04/04 05:52:31;;;;;;;2.85;0.90;;;10.90;99.90;;;;;;5055635;28;20056;-85
2024/04/04 05:54:59;;;;;;;3.17;1.13;;;10.90;99.90;;;;;;5059939;28;20187;-88
2024/04/04 05:57:27;;;;;;;2.10;0.77;;;10.90;99.90;;;;;;5043919;28;20048;-89
2024/04/04 05:59:54;;;;;;;4.30;1.13;;;10.90;99.90;;;;;;5053544;28;20068;-89
2024/04/04 06:02:20;;;;;;;3.13;1.25;;;11.00;99.90;;;;;;5073527;28;20048;-90
2024/04/04 06:04:46;;;;;;;4.00;1.42;;;11.00;99.90;;;;;;5039662;28;20041;-88
2024/04/04 06:07:12;;;;;;;3.03;1.20;;;11.00;99.90;;;;;;5043570;28;20048;-90
2024/04/04 06:09:38;;;;;;;3.78;0.90;;;11.00;99.90;;;;;;5085664;28;20098;-89
2024/04/04 06:12:05;;;;;;;4.03;0.80;;;11.10;99.90;;;;;;5042417;28;20048;-88
2024/04/04 06:14:31;;;;;;;1.98;0.60;;;11.10;99.90;;;;;;5045742;28;20043;-87
2024/04/04 06:16:57;;;;;;;2.42;0.80;;;11.10;99.90;;;;;;5051898;28;20515;-86
2024/04/04 06:19:24;;;;;;;2.20;0.82;;;11.10;99.90;;;;;;5030555;28;20040;-87
2024/04/04 06:21:50;;;;;;;3.67;0.70;;;11.20;99.90;;;;;;5058780;28;20045;-87
2024/04/04 06:24:17;;;;;;;5.88;1.25;;;11.20;99.90;;;;;;5055419;28;20043;-91
2024/04/04 06:26:44;;;;;;;2.90;1.05;;;11.20;99.90;;;;;;5056042;28;20404;-90
2024/04/04 06:29:10;;;;;;;3.50;1.17;;;11.20;99.90;;;;;;5063859;28;20055;-88
2024/04/04 06:31:36;;;;;;;4.10;1.15;;;11.30;99.90;;;;;;5028092;28;20041;-89
2024/04/04 06:34:02;;;;;;;3.72;1.50;;;11.30;99.90;;;;;;5027856;28;20105;-87
2024/04/04 06:36:28;;;;;;;1.75;0.70;;;11.30;99.90;;;;;;5038133;28;20132;-85
2024/04/04 06:38:55;;;;;;;6.32;1.38;;;11.30;99.90;;;;;;5039720;28;20033;-84
2024/04/04 06:41:21;;;;;;;5.85;1.35;;;11.40;99.90;;;;;;5057703;28;20043;-84
2024/04/04 06:43:47;;;;;;;2.90;1.15;;;11.30;99.90;;;;;;5039898;28;20044;-85
2024/04/04 06:46:13;;;;;;;6.75;2.22;;;11.40;99.90;;;;;;5041230;28;20052;-84
2024/04/04 06:48:41;;;;;;;3.72;1.33;;;11.40;99.90;;;;;;5041375;28;20041;-83
2024/04/04 06:51:08;;;;;;;6.38;1.35;;;11.40;99.90;;;;;;5037620;28;20052;-83
2024/04/04 06:53:34;;;;;;;4.97;1.40;;;11.50;99.90;;;;;;5037533;28;20045;-82
2024/04/04 06:56:00;;;;;;;3.83;1.20;;;11.50;99.90;;;;;;5018523;28;20059;-85
2024/04/04 06:58:26;;;;;;;5.43;1.27;;;11.50;99.90;;;;;;5015666;28;20131;-83
2024/04/04 07:00:59;;;;;;;5.38;1.10;;;11.50;99.90;;;;;;5041344;28;20094;-83
2024/04/04 07:03:25;;;;;;;3.63;0.88;;;11.60;99.90;;;;;;5058877;28;20054;-85
2024/04/04 07:05:52;;;;;;;8.30;1.65;;;11.60;99.90;;;;;;5060944;28;20045;-84
2024/04/04 07:08:19;;;;;;;4.65;1.40;;;11.60;99.90;;;;;;5064722;28;20040;-84
2024/04/04 07:10:45;;;;;;;6.28;1.60;;;11.60;99.90;;;;;;5042811;28;20048;-84
2024/04/04 07:13:15;;;;;;;1.98;0.70;;;11.70;99.90;;;;;;5054418;28;20049;-88
2024/04/04 07:15:41;;;;;;;5.50;1.08;;;11.70;99.90;;;;;;5064341;28;20044;-86
2024/04/04 07:18:11;;;;;;;5.20;1.55;;;11.70;99.90;;;;;;5057873;28;20051;-89
2024/04/04 07:20:37;;;;;;;3.80;1.63;;;11.70;99.90;;;;;;5052739;28;20051;-85
2024/04/04 07:23:03;;;;;;;4.88;1.20;;;11.70;99.90;;;;;;5048981;28;20099;-84
2024/04/04 07:25:30;;;;;;;3.15;1.38;;;11.80;99.90;;;;;;5050040;28;20048;-84
2024/04/04 07:27:56;;;;;;;5.63;1.10;;;11.80;99.90;;;;;;5040482;28;20053;-86
2024/04/04 07:30:22;;;;;;;3.95;0.90;;;11.80;99.90;;;;;;5037480;28;20036;-87
2024/04/04 07:32:51;;;;;;;2.78;0.88;;;11.80;99.90;;;;;;5057976;28;20077;-85
2024/04/04 07:35:17;;;;;;;2.08;0.80;;;11.80;99.90;;;;;;5011696;28;20044;-86
2024/04/04 07:37:43;;;;;;;4.28;0.95;;;11.90;99.90;;;;;;5040955;28;20059;-85
2024/04/04 07:40:09;;;;;;;4.22;0.82;;;11.90;99.90;;;;;;5057262;28;20040;-84
2024/04/04 07:42:35;;;;;;;1.88;0.77;;;11.90;99.90;;;;;;5038066;28;20507;-84
2024/04/04 07:45:01;;;;;;;5.32;0.90;;;11.90;99.90;;;;;;5038305;28;20048;-85
2024/04/04 07:47:27;;;;;;;2.83;0.77;;;12.00;99.90;;;;;;5030921;28;20106;-84
2024/04/04 07:49:53;;;;;;;2.65;0.70;;;12.00;99.90;;;;;;5042527;28;20044;-84
2024/04/04 07:52:20;;;;;;;3.72;0.70;;;12.00;99.90;;;;;;5033501;28;20496;-84
2024/04/04 07:54:46;;;;;;;3.33;0.70;;;12.00;99.90;;;;;;5065991;28;20102;-85
2024/04/04 07:57:12;;;;;;;4.50;0.82;;;12.00;99.90;;;;;;5061130;28;20063;-84
2024/04/04 07:59:43;;;;;;;2.95;0.85;;;12.10;99.90;;;;;;5044530;28;20053;-84
2024/04/04 08:02:09;;;;;;;3.55;0.82;;;12.10;99.90;;;;;;5035523;28;20048;-84
2024/04/04 08:04:35;;;;;;;5.18;0.60;;;12.10;99.90;;;;;;5050201;28;20036;-86
2024/04/04 08:07:01;;;;;;;3.25;0.63;;;12.20;99.90;;;;;;5059473;28;20173;-84
2024/04/04 08:09:27;;;;;;;3.13;0.90;;;12.20;99.90;;;;;;5032958;28;20052;-83
2024/04/04 08:11:53;;;;;;;3.92;1.10;;;12.20;99.90;;;;;;5039313;28;20504;-84
2024/04/04 08:14:23;;;;;;;3.03;0.70;;;12.20;99.90;;;;;;5027645;28;20064;-89
2024/04/04 08:16:53;;;;;;;3.97;0.90;;;12.20;99.90;;;;;;5037175;28;20048;-91
2024/04/04 08:19:22;;;;;;;4.40;1.48;;;12.20;99.90;;;;;;5036159;28;20092;-87
2024/04/04 08:21:48;;;;;;;5.05;1.20;;;12.20;99.90;;;;;;5056696;28;20048;-88
2024/04/04 08:24:14;;;;;;;3.15;0.98;;;12.20;99.90;;;;;;5053072;28;20040;-86
2024/04/04 08:26:41;;;;;;;3.55;1.00;;;12.30;99.90;;;;;;5037638;28;20494;-88
2024/04/04 08:29:07;;;;;;;3.08;1.10;;;12.30;99.90;;;;;;5056581;28;20098;-88
2024/04/04 08:31:34;;;;;;;5.63;0.88;;;12.30;99.90;;;;;;5040016;28;20143;-88
2024/04/04 08:34:04;;;;;;;5.35;1.30;;;12.30;99.90;;;;;;5070538;28;20106;-88
2024/04/04 08:36:30;;;;;;;2.85;0.90;;;12.30;99.90;;;;;;5056305;28;20187;-88
2024/04/04 08:38:56;;;;;;;3.70;0.90;;;12.30;99.90;;;;;;5070564;28;20487;-87
2024/04/04 08:41:26;;;;;;;4.25;0.63;;;12.30;99.90;;;;;;5063747;28;20044;-88
2024/04/04 08:43:55;;;;;;;4.32;0.88;;;12.30;99.90;;;;;;5044648;28;20388;-88
2024/04/04 08:46:21;;;;;;;3.03;0.90;;;12.30;99.90;;;;;;5037740;28;20090;-87
2024/04/04 08:48:54;;;;;;;2.13;0.60;;;12.40;99.90;;;;;;5055888;28;20040;-87
2024/04/04 08:51:22;;;;;;;1.73;0.55;;;12.40;99.90;;;;;;5056001;28;20047;-88
2024/04/04 08:53:51;;;;;;;2.45;0.60;;;12.40;99.90;;;;;;5045497;28;20036;-89
2024/04/04 08:56:17;;;;;;;3.95;0.60;;;12.40;99.90;;;;;;5062565;28;20488;-88
2024/04/04 08:58:44;;;;;;;2.90;0.65;;;12.40;99.90;;;;;;5024339;28;20048;-87
2024/04/04 09:01:10;;;;;;;2.83;0.95;;;12.30;99.90;;;;;;5035699;28;20067;-88
2024/04/04 09:03:41;;;;;;;2.63;0.80;;;12.30;99.90;;;;;;5030902;28;20417;-88
2024/04/04 09:06:07;;;;;;;3.90;0.70;;;12.30;99.90;;;;;;5055656;28;20519;-88
2024/04/04 09:08:36;;;;;;;3.42;0.70;;;12.40;99.90;;;;;;5043674;28;20301;-88
2024/04/04 09:11:03;;;;;;;3.70;0.85;;;12.40;99.90;;;;;;5045996;28;20135;-87
2024/04/04 09:13:30;;;;;;;3.00;0.77;;;12.40;99.90;;;;;;5049671;28;20051;-86
2024/04/04 09:16:00;;;;;;;4.50;1.08;;;12.40;99.90;;;;;;5048602;28;20059;-86
2024/04/04 09:18:26;;;;;;;3.20;0.80;;;12.40;99.90;;;;;;5047268;28;20040;-86
2024/04/04 09:20:52;;;;;;;5.07;1.52;;;12.40;99.90;;;;;;5052073;28;20056;-85
2024/04/04 09:23:18;;;;;;;4.57;0.95;;;12.40;99.90;;;;;;5058418;28;20492;-84
2024/04/04 09:25:47;;;;;;;4.50;1.77;;;12.30;99.90;;;;;;5030454;28;20040;-85
2024/04/04 09:28:14;;;;;;;4.82;1.42;;;12.30;99.90;;;;;;5041992;28;20087;-87
2024/04/04 09:30:42;;;;;;;4.03;1.25;;;12.30;99.90;;;;;;5040891;28;20069;-87
2024/04/04 09:33:09;;;;;;;6.07;2.08;;;12.30;99.90;;;;;;5064711;28;20040;-86
2024/04/04 09:35:35;;;;;;;4.00;1.90;;;12.30;99.90;;;;;;5058342;28;20044;-86
2024/04/04 09:38:02;;;;;;;6.50;1.65;;;12.40;99.90;;;;;;5028593;28;20580;-86
2024/04/04 09:40:28;;;;;;;5.32;1.70;;;12.50;99.90;;;;;;5041652;28;20032;-87
2024/04/04 09:42:54;;;;;;;4.90;1.48;;;12.50;99.90;;;;;;5058611;28;20047;-86
2024/04/04 09:45:20;;;;;;;5.32;1.40;;;12.50;99.90;;;;;;5027785;28;20037;-85
2024/04/04 09:47:48;;;;;;;3.92;1.60;;;12.50;99.90;;;;;;5046635;28;20500;-87
2024/04/04 09:50:19;;;;;;;3.25;1.33;;;12.60;99.90;;;;;;5069801;28;20044;-88
2024/04/04 09:52:46;;;;;;;3.92;1.35;;;12.70;99.90;;;;;;5056355;28;20036;-88
2024/04/04 09:55:15;;;;;;;3.38;1.20;;;12.80;99.90;;;;;;5051937;28;20040;-87
2024/04/04 09:57:44;;;;;;;2.58;1.17;;;12.90;99.90;;;;;;5083352;28;20066;-87
2024/04/04 10:00:17;;;;;;;3.03;0.93;;;12.90;99.90;;;;;;5070429;28;20039;-86
2024/04/04 10:02:54;;;;;;;4.00;1.23;;;12.90;99.90;;;;;;5069666;28;20420;-87
2024/04/04 10:05:36;;;;;;;5.20;1.33;;;12.90;99.90;;;;;;5067286;28;20055;-86
2024/04/04 10:08:14;;;;;;;3.22;1.20;;;12.80;99.90;;;;;;5057133;28;20546;-85
2024/04/04 10:10:58;;;;;;;;;;;;;;;;;;;;;
2024/04/04 10:14:21;;;;;;;3.05;1.33;;;12.80;99.90;;;;;;5046978;28;20040;-90
2024/04/04 10:16:42;;;;;;;5.20;1.30;;;12.80;99.90;;;;;;5035404;28;20144;-80
2024/04/04 10:19:10;;;;;;;4.32;1.70;;;12.60;99.90;;;;;;5047938;28;20055;-80
2024/04/04 10:21:37;;;;;;;2.33;1.02;;;12.40;99.90;;;;;;5076152;28;20044;-79
2024/04/04 10:24:03;;;;;;;3.08;1.20;;;12.20;99.90;;;;;;5076208;28;20086;-81
2024/04/04 10:26:30;;;;;;;5.45;1.35;;;12.00;99.90;;;;;;5041107;28;20045;-80
2024/04/04 10:28:56;;;;;;;3.05;1.30;;;11.90;99.90;;;;;;5060850;28;20408;-79
2024/04/04 10:31:24;;;;;;;3.25;1.38;;;12.10;99.90;;;;;;5044773;28;20044;-80
2024/04/04 10:34:11;;;;;;;3.05;0.98;;;12.40;99.90;;;;;;5075591;28;20119;-80
2024/04/04 10:36:39;;;;;;;7.50;1.35;;;12.80;99.90;;;;;;5041589;28;20041;-80
2024/04/04 10:39:06;;;;;;;3.22;1.40;;;13.10;99.90;;;;;;5040828;28;20040;-80
2024/04/04 10:41:32;;;;;;;3.00;1.20;;;13.20;99.90;;;;;;5042120;28;20048;-81
2024/04/04 10:43:58;;;;;;;3.95;1.20;;;13.30;99.90;;;;;;5026550;28;20048;-80
2024/04/04 10:46:24;;;;;;;2.53;1.20;;;13.40;99.90;;;;;;5044495;28;20132;-79
2024/04/04 10:48:50;;;;;;;2.45;1.42;;;13.50;99.90;;;;;;5052269;28;20058;-81
2024/04/04 10:51:16;;;;;;;4.88;1.35;;;13.50;99.90;;;;;;5037534;28;20051;-82
2024/04/04 10:53:42;;;;;;;5.38;1.40;;;13.50;99.90;;;;;;5040816;28;20136;-82
2024/04/04 10:56:10;;;;;;;5.45;1.50;;;13.60;99.90;;;;;;5054384;28;20056;-82
2024/04/04 10:58:37;;;;;;;2.72;1.23;;;13.70;99.90;;;;;;5060011;28;20040;-83
2024/04/04 11:01:04;;;;;;;3.67;1.10;;;13.80;99.90;;;;;;5042749;28;20049;-82
2024/04/04 11:03:30;;;;;;;3.33;1.48;;;14.00;99.90;;;;;;5037311;28;20045;-82
2024/04/04 11:05:57;;;;;;;3.80;0.90;;;14.10;99.90;;;;;;5055776;28;20094;-81
2024/04/04 11:08:27;;;;;;;3.60;1.02;;;14.20;99.90;;;;;;5057255;28;20056;-78
2024/04/04 11:10:53;;;;;;;2.90;0.77;;;14.30;99.90;;;;;;5059721;28;20040;-81
2024/04/04 11:13:19;;;;;;;2.72;0.70;;;14.40;99.90;;;;;;5040336;28;20440;-80
2024/04/04 11:15:45;;;;;;;1.20;0.40;;;14.50;99.90;;;;;;5070536;28;20049;-81
2024/04/04 11:18:12;;;;;;;1.75;0.60;;;14.50;99.90;;;;;;5042793;28;20048;-81
2024/04/04 11:20:38;;;;;;;2.88;0.47;;;14.50;99.90;;;;;;5056814;28;20036;-81
2024/04/04 11:23:04;;;;;;;2.55;0.30;;;14.40;99.90;;;;;;5049544;28;20063;-81
2024/04/04 11:25:30;;;;;;;2.65;0.60;;;14.40;99.90;;;;;;5078847;28;20496;-84
2024/04/04 11:27:56;;;;;;;8.88;0.85;;;14.40;99.90;;;;;;5044193;28;20048;-81
2024/04/04 11:30:22;;;;;;;5.10;0.60;;;14.50;99.90;;;;;;5054632;28;20044;-80
2024/04/04 11:32:48;;;;;;;4.75;0.50;;;14.60;99.90;;;;;;5083040;28;20041;-80
2024/04/04 11:35:14;;;;;;;3.53;0.50;;;14.80;98.10;;;;;;5045610;28;20066;-79
2024/04/04 11:37:40;;;;;;;3.97;0.50;;;14.80;96.80;;;;;;5040019;28;20135;-79
2024/04/04 11:40:09;;;;;;;5.05;0.60;;;14.80;96.60;;;;;;5036860;28;20048;-80
2024/04/04 11:42:35;;;;;;;4.95;0.52;;;14.70;95.70;;;;;;5053389;28;20386;-79
2024/04/04 11:45:01;;;;;;;3.13;0.40;;;14.70;95.70;;;;;;5072930;28;20037;-79
2024/04/04 11:47:27;;;;;;;4.10;0.70;;;14.70;95.20;;;;;;5041425;28;20115;-79
2024/04/04 11:49:53;;;;;;;3.72;0.60;;;14.70;95.30;;;;;;5036474;28;20436;-79
2024/04/04 11:52:20;;;;;;;3.58;0.40;;;14.70;94.60;;;;;;5048598;28;20052;-79
2024/04/04 11:54:50;;;;;;;8.40;0.85;;;14.80;93.40;;;;;;5043843;28;20032;-78
2024/04/04 11:57:16;;;;;;;4.93;0.88;;;14.80;93.40;;;;;;5038477;28;20048;-78
2024/04/04 11:59:42;;;;;;;5.82;1.10;;;14.90;92.80;;;;;;5036255;28;20056;-79
2024/04/04 12:02:08;;;;;;;5.65;1.00;;;14.90;92.30;;;;;;5023044;28;20110;-77
2024/04/04 12:04:41;;;;;;;2.90;0.60;;;14.90;92.30;;;;;;5055771;28;20049;-79
2024/04/04 12:07:07;;;;;;;8.73;1.02;;;15.00;91.60;;;;;;5022776;28;20052;-81
2024/04/04 12:09:33;;;;;;;4.20;0.60;;;15.10;92.00;;;;;;5043815;28;20492;-79
2024/04/04 12:12:00;;;;;;;4.38;0.68;;;15.20;91.70;;;;;;5065029;28;20036;-86
2024/04/04 12:14:26;;;;;;;4.00;0.95;;;15.30;91.20;;;;;;5055728;28;20522;-81
2024/04/04 12:16:54;;;;;;;4.78;0.80;;;15.30;91.50;;;;;;5056389;28;20036;-77
2024/04/04 12:19:26;;;;;;;7.72;1.85;;;15.30;90.80;;;;;;5069978;28;20044;-78
2024/04/04 12:21:52;;;;;;;5.55;0.85;;;15.20;91.00;;;;;;5048326;28;20036;-78
2024/04/04 12:24:19;;;;;;;7.32;0.82;;;15.10;91.10;;;;;;5061253;28;20044;-77
2024/04/04 12:26:46;;;;;;;3.45;0.60;;;15.00;91.00;;;;;;5042863;28;20040;-78
2024/04/04 12:29:16;;;;;;;3.63;1.05;;;14.90;91.10;;;;;;5072158;28;20043;-78
2024/04/04 12:31:43;;;;;;;5.13;0.73;;;14.80;91.40;;;;;;5047618;28;20041;-78
2024/04/04 12:34:09;;;;;;;7.85;1.00;;;14.90;91.60;;;;;;5065574;28;20554;-79
2024/04/04 12:36:36;;;;;;;9.57;0.85;;;14.90;91.10;;;;;;5047961;28;20045;-78
2024/04/04 12:39:03;;;;;;;8.60;1.10;;;15.10;90.90;;;;;;5081810;28;20044;-78
2024/04/04 12:41:29;;;;;;;5.82;1.10;;;15.30;90.10;;;;;;5044102;28;20528;-78
2024/04/04 12:43:56;;;;;;;6.93;1.83;;;15.40;90.10;;;;;;5055772;28;20059;-78
2024/04/04 12:46:22;;;;;;;7.50;1.15;;;15.60;89.40;;;;;;5051808;28;20513;-78
2024/04/04 12:48:48;;;;;;;12.35;1.00;;;15.80;88.20;;;;;;5038477;28;20037;-78